Time;durP1;ratioP1;P1;durP2;ratioP2;P2;SDS_P1;SDS_P2;PMS_P1;PMS_P2;Temp;Humidity;BMP_temperature;BMP_pressure;BME280_temperature;BME280_humidity;BME280_pressure;Samples;Min_cycle;Max_cycle;Signal;HPM_P1;HPM_P2
2023/04/14 00:00:12;;;;;;;10.90;1.10;;;;;;;8.43;74.55;99965.16;4978474;28;20022;-71
2023/04/14 00:02:37;;;;;;;5.70;0.60;;;;;;;8.44;74.68;99959.94;4965244;28;20027;-71
2023/04/14 00:05:03;;;;;;;6.70;0.50;;;;;;;8.43;74.45;99952.03;4959269;28;20030;-70
2023/04/14 00:07:28;;;;;;;8.77;0.98;;;;;;;8.42;74.32;99959.03;4958862;28;20053;-71
2023/04/14 00:09:54;;;;;;;7.70;0.90;;;;;;;8.41;74.63;99959.03;4971074;28;20403;-71
2023/04/14 00:12:19;;;;;;;6.73;0.90;;;;;;;8.40;74.47;99957.28;4979388;28;20036;-70
2023/04/14 00:14:45;;;;;;;8.63;0.95;;;;;;;8.39;74.69;99958.16;4979583;28;20030;-71
2023/04/14 00:17:10;;;;;;;5.57;0.80;;;;;;;8.41;74.58;99953.78;4979135;28;20129;-71
2023/04/14 00:19:36;;;;;;;9.33;0.90;;;;;;;8.41;74.52;99956.41;4972418;28;20031;-70
2023/04/14 00:22:01;;;;;;;12.73;0.77;;;;;;;8.41;74.62;99951.16;4978071;28;20022;-70
2023/04/14 00:24:27;;;;;;;8.68;0.73;;;;;;;8.42;74.85;99948.53;4960134;28;20102;-71
2023/04/14 00:26:52;;;;;;;8.13;0.80;;;;;;;8.43;74.54;99952.91;4959809;28;20027;-71
2023/04/14 00:29:17;;;;;;;6.43;0.90;;;;;;;8.45;74.66;99947.66;4972801;28;20058;-71
2023/04/14 00:31:43;;;;;;;5.90;0.67;;;;;;;8.44;75.12;99943.28;4978054;28;20435;-71
2023/04/14 00:34:08;;;;;;;9.40;0.60;;;;;;;8.43;74.85;99934.53;4960072;28;20395;-71
2023/04/14 00:36:33;;;;;;;7.10;0.70;;;;;;;8.45;75.13;99939.78;4976257;28;20057;-70
2023/04/14 00:38:59;;;;;;;14.03;0.97;;;;;;;8.44;75.19;99930.16;4959919;28;20027;-71
2023/04/14 00:41:25;;;;;;;7.30;0.80;;;;;;;8.44;75.16;99927.53;4958645;28;20034;-71
2023/04/14 00:43:54;;;;;;;12.90;0.77;;;;;;;8.45;74.73;99918.78;4961222;28;20039;-71
2023/04/14 00:46:21;;;;;;;9.63;0.60;;;;;;;8.45;74.91;99922.31;4973710;28;20035;-71
2023/04/14 00:48:46;;;;;;;9.75;0.80;;;;;;;8.44;74.95;99920.56;4979114;28;20018;-71
2023/04/14 00:51:12;;;;;;;8.70;1.00;;;;;;;8.45;74.98;99921.41;4978930;28;20054;-71
2023/04/14 00:53:38;;;;;;;8.13;0.77;;;;;;;8.49;74.94;99912.66;4977593;28;20027;-71
2023/04/14 00:56:04;;;;;;;7.13;0.87;;;;;;;8.51;74.96;99925.84;4964347;28;20043;-71
2023/04/14 00:58:30;;;;;;;6.55;0.70;;;;;;;8.51;75.23;99926.69;4959447;28;20024;-71
2023/04/14 01:00:57;;;;;;;7.25;0.90;;;;;;;8.53;75.73;99922.31;4959517;28;20031;-70
2023/04/14 01:03:23;;;;;;;9.60;0.80;;;;;;;8.55;75.07;99920.56;4959630;28;20034;-70
2023/04/14 01:05:49;;;;;;;5.13;0.52;;;;;;;8.55;74.93;99917.94;4970076;28;20117;-71
2023/04/14 01:08:15;;;;;;;6.88;0.80;;;;;;;8.58;75.34;99917.94;4977182;28;20121;-71
2023/04/14 01:11:10;;;;;;;7.82;0.75;;;;;;;8.58;75.44;99917.06;4978207;28;20050;-71
2023/04/14 01:13:44;;;;;;;9.55;0.85;;;;;;;8.58;75.13;99923.19;4976705;28;20030;-70
2023/04/14 01:16:28;;;;;;;5.77;0.50;;;;;;;8.58;75.96;99915.31;4976955;28;20545;-70
2023/04/14 01:19:06;;;;;;;6.50;0.50;;;;;;;8.58;75.27;99912.69;4975552;28;20138;-70
2023/04/14 01:21:40;;;;;;;7.85;0.60;;;;;;;8.59;74.94;99910.94;4974207;28;20089;-70
2023/04/14 01:24:36;;;;;;;3.53;0.50;;;;;;;8.58;75.55;99912.69;4958598;28;20023;-71
2023/04/14 01:27:21;;;;;;;6.85;0.70;;;;;;;8.61;75.13;99907.44;4958679;28;20027;-71
2023/04/14 01:30:19;;;;;;;5.40;0.40;;;;;;;8.63;75.25;99902.19;4974351;28;20026;-71
2023/04/14 01:32:46;;;;;;;5.65;0.70;;;;;;;8.66;74.88;99909.19;4969139;28;20065;-71
2023/04/14 01:35:30;;;;;;;10.30;0.98;;;;;;;8.66;74.78;99904.78;4971381;28;20035;-71
2023/04/14 01:38:05;;;;;;;7.63;0.60;;;;;;;8.67;74.99;99903.06;4958934;28;20028;-71
2023/04/14 01:40:32;;;;;;;11.15;1.05;;;;;;;8.65;75.06;99896.94;4968561;28;20478;-71
2023/04/14 01:43:03;;;;;;;7.13;0.70;;;;;;;8.63;75.28;99891.69;4977943;28;20114;-71
2023/04/14 01:45:35;;;;;;;6.50;0.90;;;;;;;8.63;75.46;99893.44;4976784;28;20030;-71
2023/04/14 01:48:02;;;;;;;6.63;0.70;;;;;;;8.62;75.44;99892.56;4977964;28;20031;-71
2023/04/14 01:50:29;;;;;;;4.63;0.85;;;;;;;8.64;75.28;99897.81;4976662;28;20019;-71
2023/04/14 01:52:57;;;;;;;7.80;0.63;;;;;;;8.61;75.31;99889.06;4962182;28;20070;-70
2023/04/14 01:55:26;;;;;;;6.20;0.70;;;;;;;8.59;75.67;99884.69;4958976;28;20035;-71
2023/04/14 01:57:53;;;;;;;9.43;1.00;;;;;;;8.56;75.56;99882.97;4957101;28;20086;-71
2023/04/14 02:00:20;;;;;;;7.00;1.05;;;;;;;8.56;75.43;99882.97;4957350;28;20059;-71
2023/04/14 02:02:49;;;;;;;7.22;0.90;;;;;;;8.54;75.31;99889.09;4958596;28;20031;-71
2023/04/14 02:05:17;;;;;;;7.65;0.77;;;;;;;8.53;75.69;99882.94;4958648;28;20388;-71
2023/04/14 02:07:45;;;;;;;7.60;0.70;;;;;;;8.55;75.07;99883.81;4958465;28;20027;-71
2023/04/14 02:10:14;;;;;;;6.93;0.50;;;;;;;8.53;75.23;99877.69;4972751;28;20564;-71
2023/04/14 02:12:42;;;;;;;6.03;0.70;;;;;;;8.53;75.54;99880.31;4981492;28;20031;-71
2023/04/14 02:15:12;;;;;;;6.70;0.50;;;;;;;8.52;75.50;99877.72;4981796;28;20402;-71
2023/04/14 02:17:39;;;;;;;4.97;0.70;;;;;;;8.51;75.21;99868.09;4981642;28;20022;-71
2023/04/14 02:20:08;;;;;;;4.70;0.77;;;;;;;8.46;75.75;99866.31;4974255;28;20023;-71
2023/04/14 02:22:34;;;;;;;7.95;0.70;;;;;;;8.46;75.50;99862.81;4975627;28;20114;-71
2023/04/14 02:24:59;;;;;;;7.38;0.60;;;;;;;8.47;75.36;99856.69;4962227;28;20123;-71
2023/04/14 02:27:32;;;;;;;5.83;0.50;;;;;;;8.45;75.45;99850.56;4962552;28;20068;-71
2023/04/14 02:30:00;;;;;;;6.35;0.70;;;;;;;8.43;75.57;99852.31;4978435;28;20034;-70
2023/04/14 02:32:29;;;;;;;7.55;0.70;;;;;;;8.44;75.14;99840.94;4974201;28;20023;-70
2023/04/14 02:35:04;;;;;;;5.20;0.50;;;;;;;8.45;75.46;99842.69;4966684;28;20022;-70
2023/04/14 02:37:36;;;;;;;6.78;0.60;;;;;;;8.45;75.34;99845.31;4981372;28;20504;-70
2023/04/14 02:40:11;;;;;;;7.32;0.65;;;;;;;8.46;75.40;99849.69;4981218;28;20085;-71
2023/04/14 02:42:40;;;;;;;6.15;0.60;;;;;;;8.48;75.09;99843.56;4981382;28;20033;-70
2023/04/14 02:45:11;;;;;;;5.13;0.60;;;;;;;8.50;75.17;99834.88;4981056;28;20038;-71
2023/04/14 02:47:42;;;;;;;6.07;0.70;;;;;;;8.51;75.35;99829.59;4979731;28;20023;-70
2023/04/14 02:50:11;;;;;;;6.07;0.70;;;;;;;8.51;75.31;99828.72;4962810;28;20027;-71
2023/04/14 02:52:39;;;;;;;6.97;1.73;;;;;;;8.52;75.45;99823.47;4962065;28;20034;-71
2023/04/14 02:55:06;;;;;;;5.63;0.70;;;;;;;8.53;75.05;99819.97;4968461;28;20029;-71
2023/04/14 02:57:32;;;;;;;4.32;0.50;;;;;;;8.54;75.36;99811.22;4980777;28;20395;-71
2023/04/14 02:59:59;;;;;;;6.30;0.53;;;;;;;8.56;75.26;99811.22;4980948;28;20039;-71
2023/04/14 03:02:25;;;;;;;5.18;0.60;;;;;;;8.56;75.06;99806.84;4981119;28;20027;-71
2023/04/14 03:04:52;;;;;;;8.02;0.63;;;;;;;8.56;75.39;99804.22;4981069;28;20514;-71
2023/04/14 03:07:20;;;;;;;9.35;0.70;;;;;;;8.57;75.46;99798.09;4980631;28;20054;-71
2023/04/14 03:09:49;;;;;;;6.47;0.60;;;;;;;8.57;75.14;99790.22;4971313;28;20065;-71
2023/04/14 03:12:15;;;;;;;4.23;0.53;;;;;;;8.58;75.34;99791.97;4978695;28;20034;-70
2023/04/14 03:14:42;;;;;;;6.82;0.55;;;;;;;8.60;75.09;99789.31;4979397;28;20046;-71
2023/04/14 03:17:10;;;;;;;6.03;0.50;;;;;;;8.60;75.36;99792.84;4980212;28;20153;-70
2023/04/14 03:19:39;;;;;;;4.78;0.75;;;;;;;8.60;75.12;99782.34;4973354;28;20078;-71
2023/04/14 03:22:06;;;;;;;5.40;0.57;;;;;;;8.61;75.30;99778.84;4976640;28;20027;-71
2023/04/14 03:24:34;;;;;;;5.30;0.50;;;;;;;8.61;75.39;99784.09;4961298;28;20117;-71
2023/04/14 03:27:03;;;;;;;6.88;0.63;;;;;;;8.59;75.03;99777.97;4960845;28;20174;-71
2023/04/14 03:29:35;;;;;;;5.53;0.50;;;;;;;8.60;75.40;99781.44;4975297;28;20606;-71
2023/04/14 03:32:05;;;;;;;6.43;0.40;;;;;;;8.60;75.13;99773.56;4979460;28;20502;-71
2023/04/14 03:34:33;;;;;;;2.90;0.40;;;;;;;8.60;75.29;99758.72;4979222;28;20382;-71
2023/04/14 03:37:00;;;;;;;8.13;0.70;;;;;;;8.58;75.56;99765.72;4959684;28;20086;-71
2023/04/14 03:39:27;;;;;;;6.88;0.70;;;;;;;8.55;75.63;99757.84;4961069;28;20082;-71
2023/04/14 03:41:58;;;;;;;8.50;0.52;;;;;;;8.51;75.67;99758.72;4960621;28;20031;-71
2023/04/14 03:44:26;;;;;;;4.75;0.50;;;;;;;8.52;75.43;99757.00;4961820;28;20071;-71
2023/04/14 03:46:53;;;;;;;8.20;0.52;;;;;;;8.52;75.52;99755.22;4959275;28;20059;-70
2023/04/14 03:49:20;;;;;;;3.90;0.40;;;;;;;8.54;75.27;99758.72;4960911;28;20130;-71
2023/04/14 03:51:48;;;;;;;8.15;0.57;;;;;;;8.54;75.37;99755.25;4960592;28;20027;-70
2023/04/14 03:54:16;;;;;;;6.47;0.40;;;;;;;8.54;75.37;99753.47;4960756;28;20027;-70
2023/04/14 03:56:46;;;;;;;6.68;0.50;;;;;;;8.56;75.39;99757.00;4966892;28;20025;-70
2023/04/14 03:59:15;;;;;;;3.22;0.47;;;;;;;8.55;75.46;99754.34;4979858;28;20082;-71
2023/04/14 04:01:41;;;;;;;7.10;0.77;;;;;;;8.52;75.46;99755.22;4979959;28;20499;-71
2023/04/14 04:04:07;;;;;;;3.88;0.47;;;;;;;8.53;75.38;99756.13;4979672;28;20015;-70
2023/04/14 04:06:33;;;;;;;4.53;0.60;;;;;;;8.52;75.72;99752.59;4978447;28;20149;-71
2023/04/14 04:09:01;;;;;;;7.33;0.77;;;;;;;8.50;75.35;99748.25;4974937;28;20054;-71
2023/04/14 04:11:28;;;;;;;6.25;0.50;;;;;;;8.47;75.39;99735.97;4971179;28;20502;-71
2023/04/14 04:13:56;;;;;;;4.88;0.45;;;;;;;8.47;75.87;99733.34;4979509;28;20080;-71
2023/04/14 04:16:23;;;;;;;5.22;0.40;;;;;;;8.41;75.92;99726.38;4974737;28;20404;-71
2023/04/14 04:18:49;;;;;;;5.82;0.60;;;;;;;8.40;75.82;99718.53;4960028;28;20380;-70
2023/04/14 04:21:16;;;;;;;5.63;0.50;;;;;;;8.39;75.81;99719.41;4972997;28;20027;-70
2023/04/14 04:23:46;;;;;;;6.53;0.52;;;;;;;8.39;75.96;99712.41;4963587;28;20035;-70
2023/04/14 04:26:12;;;;;;;4.72;0.50;;;;;;;8.38;75.91;99715.91;4959813;28;20035;-71
2023/04/14 04:28:39;;;;;;;4.43;0.50;;;;;;;8.38;75.64;99721.16;4970372;28;20026;-71
2023/04/14 04:31:05;;;;;;;6.53;0.47;;;;;;;8.37;75.71;99715.91;4976617;28;20082;-70
2023/04/14 04:33:31;;;;;;;3.50;0.60;;;;;;;8.35;75.81;99718.53;4978472;28;20034;-70
2023/04/14 04:35:57;;;;;;;7.20;0.60;;;;;;;8.35;75.80;99725.56;4965210;28;20029;-71
2023/04/14 04:38:23;;;;;;;4.32;0.35;;;;;;;8.37;75.45;99723.78;4959903;28;20090;-71
2023/04/14 04:40:48;;;;;;;6.63;0.60;;;;;;;8.38;75.73;99726.41;4964296;28;20035;-71
2023/04/14 04:43:16;;;;;;;5.50;0.60;;;;;;;8.40;75.43;99729.03;4959688;28;20063;-71
2023/04/14 04:45:57;;;;;;;5.60;0.50;;;;;;;8.40;76.01;99732.50;4959559;28;20027;-71
2023/04/14 04:48:22;;;;;;;4.07;0.50;;;;;;;8.41;75.49;99733.41;4958125;28;20031;-70
2023/04/14 04:50:48;;;;;;;11.00;0.70;;;;;;;8.43;75.67;99729.00;4959982;28;20487;-71
2023/04/14 04:53:13;;;;;;;5.10;0.70;;;;;;;8.44;75.54;99726.41;4959593;28;20026;-71
2023/04/14 04:55:42;;;;;;;6.57;0.97;;;;;;;8.45;75.72;99719.38;4959446;28;20034;-71
2023/04/14 04:58:08;;;;;;;5.75;0.65;;;;;;;8.47;75.77;99709.75;4959346;28;20147;-71
2023/04/14 05:00:33;;;;;;;6.07;0.60;;;;;;;8.48;75.34;99715.00;4959498;28;20079;-71
2023/04/14 05:02:59;;;;;;;3.95;0.52;;;;;;;8.52;75.65;99723.75;4959271;28;20026;-70
2023/04/14 05:05:24;;;;;;;6.70;0.80;;;;;;;8.54;75.66;99715.88;4959473;28;20372;-71
2023/04/14 05:07:50;;;;;;;6.23;0.90;;;;;;;8.54;75.69;99711.47;4957944;28;20038;-70
2023/04/14 05:10:15;;;;;;;5.80;0.80;;;;;;;8.53;75.29;99711.50;4972767;28;20328;-71
2023/04/14 05:12:41;;;;;;;5.43;0.90;;;;;;;8.53;75.51;99703.63;4978260;28;20578;-70
2023/04/14 05:15:08;;;;;;;5.90;1.03;;;;;;;8.51;75.61;99701.00;4978547;28;20034;-70
2023/04/14 05:17:34;;;;;;;5.93;0.70;;;;;;;8.51;75.30;99706.25;4978579;28;20094;-71
2023/04/14 05:20:00;;;;;;;6.57;0.80;;;;;;;8.52;75.46;99705.38;4971225;28;20494;-71
2023/04/14 05:22:26;;;;;;;7.00;0.80;;;;;;;8.53;75.70;99699.25;4973519;28;20031;-71
2023/04/14 05:24:51;;;;;;;5.13;0.90;;;;;;;8.54;75.42;99697.50;4970563;28;20041;-71
2023/04/14 05:27:17;;;;;;;7.03;0.90;;;;;;;8.55;75.03;99705.34;4960120;28;20038;-71
2023/04/14 05:29:42;;;;;;;5.20;1.07;;;;;;;8.57;75.08;99697.50;4974957;28;20023;-71
2023/04/14 05:32:09;;;;;;;6.45;1.20;;;;;;;8.57;74.99;99706.25;4978137;28;20023;-71
2023/04/14 05:34:35;;;;;;;5.90;1.17;;;;;;;8.57;75.35;99697.50;4976374;28;20046;-70
2023/04/14 05:37:00;;;;;;;5.60;1.10;;;;;;;8.57;75.44;99701.00;4971095;28;20030;-71
2023/04/14 05:39:25;;;;;;;7.60;1.03;;;;;;;8.59;75.14;99700.97;4967418;28;20038;-71
2023/04/14 05:41:51;;;;;;;4.43;0.87;;;;;;;8.59;75.18;99703.59;4958586;28;20031;-71
2023/04/14 05:44:16;;;;;;;4.75;1.10;;;;;;;8.63;75.09;99701.84;4957180;28;20114;-71
2023/04/14 05:46:42;;;;;;;5.83;1.20;;;;;;;8.64;74.90;99688.69;4958562;28;20031;-71
2023/04/14 05:49:07;;;;;;;6.87;1.10;;;;;;;8.68;74.62;99693.06;4958970;28;20102;-71
2023/04/14 05:51:33;;;;;;;6.83;0.90;;;;;;;8.72;74.86;99688.66;4958660;28;20031;-71
2023/04/14 05:53:58;;;;;;;5.55;0.80;;;;;;;8.79;74.71;99679.00;4958722;28;20034;-70
2023/04/14 05:56:23;;;;;;;8.50;0.90;;;;;;;8.86;74.46;99678.94;4958438;28;20035;-71
2023/04/14 05:58:53;;;;;;;6.40;0.90;;;;;;;8.90;74.66;99683.28;4958859;28;20031;-71
2023/04/14 06:01:18;;;;;;;6.03;1.02;;;;;;;8.96;74.57;99674.50;4958780;28;20071;-71
2023/04/14 06:03:44;;;;;;;4.27;0.87;;;;;;;8.99;74.42;99670.97;4957466;28;20043;-71
2023/04/14 06:06:09;;;;;;;8.07;1.25;;;;;;;9.03;74.44;99677.94;4966203;28;20035;-71
2023/04/14 06:08:34;;;;;;;6.00;0.80;;;;;;;9.09;74.61;99677.03;4973554;28;20062;-71
2023/04/14 06:11:00;;;;;;;4.87;0.70;;;;;;;9.10;74.80;99669.16;4965630;28;20129;-71
2023/04/14 06:13:25;;;;;;;7.47;1.07;;;;;;;9.12;74.43;99671.75;4977959;28;20038;-71
2023/04/14 06:15:51;;;;;;;4.72;0.70;;;;;;;9.13;74.64;99668.25;4975943;28;20114;-71
2023/04/14 06:18:16;;;;;;;6.63;0.80;;;;;;;9.13;75.13;99666.50;4978079;28;20027;-70
2023/04/14 06:20:42;;;;;;;6.00;0.70;;;;;;;9.16;74.74;99669.09;4970450;28;20050;-70
2023/04/14 06:23:07;;;;;;;5.37;0.70;;;;;;;9.20;74.65;99662.06;4977895;28;20042;-70
2023/04/14 06:25:35;;;;;;;8.20;1.00;;;;;;;9.26;74.51;99663.75;4974524;28;20038;-70
2023/04/14 06:28:04;;;;;;;7.97;0.87;;;;;;;9.32;74.52;99663.72;4977394;28;20487;-70
2023/04/14 06:30:31;;;;;;;6.05;0.95;;;;;;;9.40;74.49;99656.63;4971041;28;20070;-71
2023/04/14 06:32:57;;;;;;;7.20;1.73;;;;;;;9.47;74.50;99658.31;4965970;28;20050;-72
2023/04/14 06:35:22;;;;;;;7.93;0.82;;;;;;;9.59;74.20;99654.69;4966486;28;20035;-72
2023/04/14 06:37:49;;;;;;;5.37;0.83;;;;;;;9.66;74.01;99646.78;4966001;28;20123;-72
2023/04/14 06:40:14;;;;;;;9.38;0.90;;;;;;;9.72;74.15;99651.97;4958284;28;20027;-71
2023/04/14 06:42:40;;;;;;;6.00;0.70;;;;;;;9.74;74.20;99650.19;4958309;28;20646;-72
2023/04/14 06:45:06;;;;;;;10.27;1.20;;;;;;;9.72;74.49;99639.66;4962631;28;20037;-72
2023/04/14 06:47:31;;;;;;;6.97;0.88;;;;;;;9.73;74.40;99640.56;4976182;28;20074;-72
2023/04/14 06:49:57;;;;;;;7.00;0.90;;;;;;;9.72;74.50;99630.94;4977249;28;20487;-72
2023/04/14 06:52:23;;;;;;;8.00;0.80;;;;;;;9.72;74.58;99636.19;4976345;28;20035;-72
2023/04/14 06:54:48;;;;;;;8.48;0.77;;;;;;;9.74;74.45;99643.16;4977533;28;20380;-72
2023/04/14 06:57:14;;;;;;;8.73;0.90;;;;;;;9.80;74.42;99644.00;4979978;28;20023;-72
2023/04/14 06:59:40;;;;;;;8.85;1.00;;;;;;;9.85;74.72;99639.53;4979728;28;20062;-72
2023/04/14 07:02:06;;;;;;;9.37;1.03;;;;;;;9.91;74.29;99648.25;4981213;28;20434;-72
2023/04/14 07:04:31;;;;;;;9.07;0.75;;;;;;;9.98;74.40;99641.13;4979873;28;20042;-72
2023/04/14 07:07:00;;;;;;;7.37;0.60;;;;;;;10.01;74.37;99638.50;4980965;28;20434;-72
2023/04/14 07:09:27;;;;;;;5.70;0.70;;;;;;;10.08;74.13;99630.53;4973872;28;20027;-72
2023/04/14 07:11:52;;;;;;;9.00;0.90;;;;;;;10.12;74.53;99635.69;4976214;28;20034;-72
2023/04/14 07:14:18;;;;;;;8.73;1.30;;;;;;;10.21;74.48;99632.09;4979518;28;20039;-72
2023/04/14 07:16:43;;;;;;;6.63;1.00;;;;;;;10.29;74.23;99624.97;4980296;28;20067;-72
2023/04/14 07:19:08;;;;;;;11.33;1.50;;;;;;;10.37;73.92;99619.63;4980806;28;20030;-72
2023/04/14 07:21:34;;;;;;;5.10;1.10;;;;;;;10.42;74.18;99611.69;4962615;28;20062;-72
2023/04/14 07:23:59;;;;;;;6.03;1.20;;;;;;;10.43;73.67;99610.78;4961178;28;20267;-72
2023/04/14 07:26:25;;;;;;;9.57;1.33;;;;;;;10.44;74.08;99604.63;4961148;28;20034;-72
2023/04/14 07:28:50;;;;;;;8.00;1.60;;;;;;;10.44;73.75;99599.34;4970159;28;20062;-72
2023/04/14 07:31:15;;;;;;;7.83;1.07;;;;;;;10.54;73.55;99600.09;4962393;28;20031;-72
2023/04/14 07:33:41;;;;;;;7.65;1.33;;;;;;;10.60;73.53;99592.97;4959790;28;20027;-72
2023/04/14 07:36:08;;;;;;;8.47;1.37;;;;;;;10.67;73.42;99595.50;4974088;28;20034;-72
2023/04/14 07:38:34;;;;;;;6.22;1.10;;;;;;;10.75;73.31;99591.03;4962095;28;20015;-72
2023/04/14 07:41:03;;;;;;;7.57;1.17;;;;;;;10.85;73.32;99589.09;4960925;28;20039;-72
2023/04/14 07:43:33;;;;;;;8.88;0.90;;;;;;;10.90;72.63;99580.22;4959713;28;20031;-72
2023/04/14 07:46:03;;;;;;;6.75;0.90;;;;;;;10.91;72.13;99578.47;4960932;28;20027;-72
2023/04/14 07:48:28;;;;;;;6.00;0.98;;;;;;;10.93;72.66;99591.59;4959549;28;20027;-72
2023/04/14 07:50:54;;;;;;;8.87;0.70;;;;;;;10.91;72.19;99596.91;4961005;28;20035;-72
2023/04/14 07:53:19;;;;;;;6.80;0.87;;;;;;;10.89;72.57;99591.66;4959519;28;20027;-72
2023/04/14 07:55:44;;;;;;;4.72;0.65;;;;;;;10.94;72.40;99591.59;4960452;28;20038;-72
2023/04/14 07:58:10;;;;;;;12.20;0.93;;;;;;;11.00;72.28;99591.47;4960841;28;20023;-72
2023/04/14 08:00:36;;;;;;;3.90;0.60;;;;;;;11.07;71.95;99592.25;4960744;28;20027;-72
2023/04/14 08:03:01;;;;;;;2.97;0.40;;;;;;;11.15;71.43;99587.72;4960633;28;20082;-72
2023/04/14 08:05:27;;;;;;;3.63;0.57;;;;;;;11.19;71.07;99573.56;4960837;28;20055;-72
2023/04/14 08:07:52;;;;;;;4.60;0.60;;;;;;;11.26;71.20;99573.50;4959548;28;20086;-72
2023/04/14 08:10:18;;;;;;;6.78;0.75;;;;;;;11.35;70.63;99568.03;4974379;28;20030;-72
2023/04/14 08:12:43;;;;;;;3.57;0.60;;;;;;;11.45;70.28;99566.97;4979464;28;20035;-71
2023/04/14 08:15:09;;;;;;;3.60;0.40;;;;;;;11.54;70.17;99568.56;4979528;28;20399;-72
2023/04/14 08:17:34;;;;;;;3.92;0.55;;;;;;;11.65;69.84;99560.44;4978124;28;20609;-72
2023/04/14 08:20:00;;;;;;;5.20;0.63;;;;;;;11.78;69.83;99559.28;4970960;28;20109;-72
2023/04/14 08:22:25;;;;;;;5.97;0.60;;;;;;;11.98;69.78;99567.69;4973350;28;20031;-72
2023/04/14 08:24:50;;;;;;;5.47;0.70;;;;;;;12.20;69.16;99562.88;4966568;28;20410;-72
2023/04/14 08:27:16;;;;;;;5.25;0.70;;;;;;;12.30;68.97;99559.09;4961280;28;20087;-72
2023/04/14 08:29:41;;;;;;;2.53;0.37;;;;;;;12.40;69.32;99558.88;4974838;28;20037;-72
2023/04/14 08:32:06;;;;;;;5.10;0.50;;;;;;;12.44;69.30;99550.00;4966228;28;20026;-72
2023/04/14 08:34:32;;;;;;;3.47;0.57;;;;;;;12.44;68.88;99550.84;4977969;28;20058;-72
2023/04/14 08:36:59;;;;;;;3.93;0.47;;;;;;;12.44;69.31;99550.84;4959930;28;20027;-72
2023/04/14 08:39:25;;;;;;;3.75;0.50;;;;;;;12.49;68.93;99554.25;4959951;28;20067;-72
2023/04/14 08:41:52;;;;;;;4.00;0.47;;;;;;;12.55;69.01;99550.59;4958197;28;20035;-72
2023/04/14 08:44:17;;;;;;;2.22;0.32;;;;;;;12.66;68.61;99555.63;4958680;28;20412;-72
2023/04/14 08:46:44;;;;;;;3.13;0.30;;;;;;;12.68;68.38;99560.91;4959564;28;20031;-72
2023/04/14 08:49:20;;;;;;;2.20;0.30;;;;;;;12.69;68.39;99549.44;4959826;28;20031;-72
2023/04/14 08:51:48;;;;;;;2.58;0.30;;;;;;;12.67;68.40;99556.53;4959675;28;20046;-73
2023/04/14 08:54:14;;;;;;;3.35;0.40;;;;;;;12.64;68.63;99562.72;4959738;28;20034;-72
2023/04/14 08:56:41;;;;;;;2.07;0.30;;;;;;;12.61;68.81;99561.03;4964581;28;20118;-72
2023/04/14 08:59:08;;;;;;;2.20;0.40;;;;;;;12.58;69.10;99563.75;4978831;28;20026;-72
2023/04/14 09:01:35;;;;;;;2.35;0.40;;;;;;;12.56;69.82;99562.91;4978904;28;20391;-72
2023/04/14 09:04:04;;;;;;;2.75;0.40;;;;;;;12.54;70.00;99572.66;4978739;28;20030;-72
2023/04/14 09:06:30;;;;;;;1.85;0.32;;;;;;;12.48;70.58;99571.00;4977543;28;20038;-72
2023/04/14 09:08:58;;;;;;;3.13;0.40;;;;;;;12.43;71.10;99569.41;4975527;28;20055;-72
2023/04/14 09:11:24;;;;;;;2.97;0.55;;;;;;;12.38;71.55;99569.50;4977005;28;20435;-72
2023/04/14 09:13:52;;;;;;;2.75;0.40;;;;;;;12.41;71.51;99569.41;4978522;28;20030;-72
2023/04/14 09:16:17;;;;;;;4.15;0.50;;;;;;;12.44;72.09;99564.06;4978366;28;20122;-72
2023/04/14 09:18:43;;;;;;;3.03;0.47;;;;;;;12.52;72.07;99563.88;4975766;28;20050;-72
2023/04/14 09:21:10;;;;;;;3.38;0.43;;;;;;;12.56;72.58;99560.28;4972392;28;20550;-75
2023/04/14 09:23:36;;;;;;;3.17;0.43;;;;;;;12.57;71.90;99555.88;4964362;28;20522;-72
2023/04/14 09:26:07;;;;;;;2.50;0.50;;;;;;;12.56;72.35;99565.56;4958936;28;20121;-72
2023/04/14 09:28:33;;;;;;;4.30;0.50;;;;;;;12.58;72.16;99554.97;4968877;28;20030;-72
2023/04/14 09:30:59;;;;;;;3.83;0.70;;;;;;;12.63;72.73;99551.28;4975285;28;20041;-72
2023/04/14 09:33:25;;;;;;;3.17;0.50;;;;;;;12.74;72.56;99547.53;4963364;28;20267;-72
2023/04/14 09:35:51;;;;;;;3.55;0.60;;;;;;;12.97;72.42;99541.66;4970779;28;20466;-73
2023/04/14 09:38:38;;;;;;;2.40;0.50;;;;;;;13.16;72.55;99544.72;4963373;28;20136;-72
2023/04/14 09:41:07;;;;;;;3.10;0.40;;;;;;;13.29;72.20;99539.06;4958904;28;20038;-72
2023/04/14 09:43:33;;;;;;;4.43;0.50;;;;;;;13.28;71.78;99542.63;4958792;28;20045;-72
2023/04/14 09:46:08;;;;;;;3.75;0.47;;;;;;;13.24;72.10;99548.91;4958775;28;20134;-72
2023/04/14 09:48:36;;;;;;;2.85;0.40;;;;;;;13.20;71.96;99543.72;4965566;28;20035;-72
2023/04/14 09:51:08;;;;;;;2.78;0.65;;;;;;;13.17;72.03;99538.50;4978338;28;20023;-72
2023/04/14 09:53:35;;;;;;;2.10;0.40;;;;;;;13.14;72.07;99535.06;4978061;28;20049;-72
2023/04/14 09:56:04;;;;;;;4.40;0.60;;;;;;;13.09;71.98;99532.53;4977931;28;20035;-72
2023/04/14 09:58:38;;;;;;;3.25;0.50;;;;;;;13.05;72.41;99531.78;4978363;28;20023;-72
2023/04/14 10:01:11;;;;;;;3.08;0.50;;;;;;;13.04;72.29;99531.78;4976879;28;20035;-72
2023/04/14 10:03:39;;;;;;;1.42;0.30;;;;;;;13.04;72.06;99534.44;4978005;28;20057;-73
2023/04/14 10:06:09;;;;;;;2.55;0.40;;;;;;;13.03;72.17;99530.94;4977700;28;20034;-72
2023/04/14 10:08:40;;;;;;;2.73;0.40;;;;;;;13.07;72.53;99522.03;4977782;28;20050;-72
2023/04/14 10:11:22;;;;;;;2.67;0.30;;;;;;;13.13;71.96;99526.25;4965360;28;20027;-73
2023/04/14 10:13:56;;;;;;;2.85;0.30;;;;;;;13.17;71.88;99514.72;4977754;28;20042;-72
2023/04/14 10:16:23;;;;;;;2.63;0.40;;;;;;;13.23;71.96;99520.75;4977641;28;20451;-73
2023/04/14 10:18:49;;;;;;;2.72;0.32;;;;;;;13.30;71.77;99511.72;4962453;28;20043;-72
2023/04/14 10:21:15;;;;;;;2.37;0.47;;;;;;;13.31;71.82;99522.28;4972777;28;20111;-72
2023/04/14 10:23:41;;;;;;;3.00;0.40;;;;;;;13.29;71.57;99510.00;4962434;28;20058;-72
2023/04/14 10:26:07;;;;;;;2.90;0.40;;;;;;;13.33;71.43;99511.63;4958195;28;20388;-72
2023/04/14 10:28:39;;;;;;;2.77;0.40;;;;;;;13.32;71.43;99512.53;4968402;28;20402;-72
2023/04/14 10:31:08;;;;;;;2.70;0.32;;;;;;;13.32;71.45;99507.25;4972276;28;20558;-72
2023/04/14 10:33:37;;;;;;;2.33;0.40;;;;;;;13.32;71.38;99505.50;4976280;28;20030;-72
2023/04/14 10:36:03;;;;;;;2.70;0.40;;;;;;;13.37;71.47;99504.50;4971710;28;20034;-72
2023/04/14 10:38:45;;;;;;;1.90;0.40;;;;;;;13.40;71.44;99505.28;4975891;28;20027;-72
2023/04/14 10:41:11;;;;;;;2.85;0.30;;;;;;;13.57;71.37;99501.31;4975170;28;20027;-72
2023/04/14 10:43:37;;;;;;;2.17;0.40;;;;;;;13.72;71.04;99500.00;4972243;28;20031;-72
2023/04/14 10:46:08;;;;;;;2.15;0.40;;;;;;;13.82;70.69;99497.94;4974106;28;20039;-72
2023/04/14 10:48:36;;;;;;;3.03;0.40;;;;;;;13.90;70.91;99495.94;4979356;28;20088;-72
2023/04/14 10:51:04;;;;;;;3.90;0.40;;;;;;;13.96;70.29;99485.16;4975233;28;20026;-72
2023/04/14 10:53:35;;;;;;;2.65;0.45;;;;;;;14.07;70.16;99476.91;4976662;28;20150;-72
2023/04/14 10:56:02;;;;;;;2.33;0.38;;;;;;;14.13;69.85;99478.50;4979614;28;20479;-73
2023/04/14 10:58:28;;;;;;;2.22;0.40;;;;;;;14.19;69.70;99476.50;4972838;28;20101;-72
2023/04/14 11:00:55;;;;;;;3.87;0.40;;;;;;;14.26;69.24;99477.19;4968663;28;20043;-72
2023/04/14 11:03:22;;;;;;;2.40;0.40;;;;;;;14.38;69.19;99469.75;4978208;28;20034;-72
2023/04/14 11:05:49;;;;;;;2.17;0.30;;;;;;;14.41;68.99;99461.72;4972164;28;20035;-72
2023/04/14 11:08:16;;;;;;;2.30;0.40;;;;;;;14.47;68.69;99466.81;4975302;28;20864;-72
2023/04/14 11:11:00;;;;;;;2.10;0.40;;;;;;;14.57;68.74;99456.75;4977914;28;20086;-73
2023/04/14 11:13:25;;;;;;;2.63;0.32;;;;;;;14.84;68.20;99447.03;4979197;28;20406;-73
2023/04/14 11:16:01;;;;;;;1.70;0.30;;;;;;;15.10;66.94;99447.91;4976622;28;20055;-75
2023/04/14 11:18:32;;;;;;;1.75;0.30;;;;;;;15.30;66.73;99446.28;4979518;28;20023;-75
2023/04/14 11:21:05;;;;;;;1.95;0.40;;;;;;;15.53;65.60;99432.19;4975304;28;20135;-74
2023/04/14 11:23:31;;;;;;;2.50;0.40;;;;;;;15.59;65.61;99431.09;4971265;28;20039;-74
2023/04/14 11:25:57;;;;;;;2.40;0.37;;;;;;;15.55;65.26;99424.16;4966818;28;20149;-74
2023/04/14 11:28:33;;;;;;;3.00;0.52;;;;;;;15.39;65.21;99430.06;4977966;28;20118;-74
2023/04/14 11:31:00;;;;;;;2.40;0.50;;;;;;;15.32;65.50;99428.56;4976269;28;20031;-72
2023/04/14 11:33:37;;;;;;;2.65;0.40;;;;;;;15.23;65.47;99420.91;4978213;28;20109;-72
2023/04/14 11:36:04;;;;;;;2.00;0.40;;;;;;;15.24;65.54;99430.59;4976420;28;20042;-72
2023/04/14 11:38:30;;;;;;;2.05;0.47;;;;;;;15.25;65.24;99416.41;4979309;28;20014;-72
2023/04/14 11:40:56;;;;;;;2.33;0.40;;;;;;;15.33;65.43;99412.56;4975347;28;20030;-72